Pagrindinis puslapis
METAR-TAF:

METAR-TAF

Oro uostai :

Dalhart Municipal Airport

Dalhart, Teksasas, Jungtinės Amerikos Valstijos

platuma: 36-01-24N, ilguma: 102-32-50W, Aukštis: 1216 m

Dabartinis oras

Ataskaita buvo paskelbta 52 minutes, ne 02:53 UTC
Vėjas 8 kt iš Pietų/Pietryčių
Temperatūra 28°C
Drėgmė 37%
Slėgis 1017 hPa
Matomumas: 16.1 km
Giedras dangus

METAR: KDHT 160253Z AUTO 16008KT 10SM CLR 28/12 A3002 RMK AO2 SLP095 T02830122 53012

Laikas: 22:45 (03:45 UTC)

Prognozė

Ataskaita buvo paskelbta 4 valandos ir 23 minutes, ne 23:22 UTC
Prognozė galioja nuo 16 metu 00 UTC su 16 metu 24 UTC
Vėjas 13 kt iš Pietų
Matomumas: 10 km
Mažai debesys ne aukštis 25000 ft
Nuo 16 metu 0700 UTC
Vėjas 13 kt iš Šiaurės/Šiaurės Vakarų
Matomumas: 10 km
Išsisklaidę debesys ne aukštis 10000 ft
Nuo 16 metu 1900 UTC
Vėjas 10 kt iš Šiaurės Rytų
Matomumas: 10 km
Su prošvaistėmis ne aukštis 10000 ft

TAF: KDHT 152322Z 1600/1624 17013KT P6SM FEW250 FM160700 34013KT P6SM SCT100 FM161900 05010KT P6SM BKN100

Orai ataskaitas ir orų prognozės (METAR, TAF).

turimą stotys yra geltonos ir raudonos taškus žemėlapyje.

Perkelti pele per norėdami pamatyti stoties vardą.

Tada spustelėkite, norėdami matyti oro stebėjimo ir prognozės.

Norėdami pakeisti žemėlapį: spustelėkite ant žalios mygtukų su juodo kryžiaus žemyn,; žalią mygtuką su brūkšneliu, jei norite nutolinti; arba žalių rodyklių gretimoms žemėlapius.


METAR-TAF: